Back to Top

Language: 

My Weather Underground Personal Weather Station Historical Data with Graphs...

Delerius Weather Station Historical Data
Daily Summary for April 30, 2017 Units:  English    Metric   Both
« Previous Day
Next Day »
Daily Weekly Monthly Yearly Custom
  High: Low: Average:
Temperature: 61.2 °F 45.1 °F 52.3 °F
Dew Point: 45.5 °F 38.6 °F 42.6 °F
Humidity: 84 % 46 % 71 %
Wind Speed: 16.0 mph 0.0 mph 7 mph
Wind Gust: 27.0 mph - -
Wind:- - ESE
Pressure: 29.84 in 29.53 in -
Precipitation: 0.00 in    
Historical Graphs
 
 
Tabular Data for April 30, 2017
Time Temperature Dew Point Pressure Wind Wind Speed Wind Gust Humidity Rainfall Rate (Hourly) solar Conditions
00:01 47.3 °F 42.7 °F 29.84 in SE 6.0 mph 11.0 mph 84 % 0.00 in 0 W/m2
00:06 47.3 °F 42.7 °F 29.84 in SE 7.0 mph 13.0 mph 84 % 0.00 in 0 W/m2
00:11 47.3 °F 42.4 °F 29.84 in SE 7.0 mph 13.0 mph 83 % 0.00 in 0 W/m2
00:16 47.3 °F 42.4 °F 29.84 in SE 6.0 mph 11.0 mph 83 % 0.00 in 0 W/m2
00:21 47.1 °F 41.9 °F 29.84 in SE 6.0 mph 10.0 mph 82 % 0.00 in 0 W/m2
00:26 47.1 °F 41.9 °F 29.84 in SE 6.0 mph 10.0 mph 82 % 0.00 in 0 W/m2
00:31 47.1 °F 41.9 °F 29.83 in SE 5.0 mph 9.0 mph 82 % 0.00 in 0 W/m2
00:36 46.9 °F 41.7 °F 29.83 in SE 5.0 mph 9.0 mph 82 % 0.00 in 0 W/m2
00:41 46.9 °F 41.7 °F 29.83 in SE 5.0 mph 9.0 mph 82 % 0.00 in 0 W/m2
00:46 46.9 °F 41.7 °F 29.83 in SE 5.0 mph 9.0 mph 82 % 0.00 in 0 W/m2
00:51 46.8 °F 41.6 °F 29.83 in SE 4.0 mph 8.0 mph 82 % 0.00 in 0 W/m2
00:56 46.6 °F 41.4 °F 29.83 in SE 5.0 mph 8.0 mph 82 % 0.00 in 0 W/m2
01:01 46.6 °F 41.4 °F 29.83 in SE 6.0 mph 10.0 mph 82 % 0.00 in 0 W/m2
01:06 46.6 °F 41.4 °F 29.83 in SE 6.0 mph 10.0 mph 82 % 0.00 in 0 W/m2
01:11 46.2 °F 41.0 °F 29.83 in SE 6.0 mph 10.0 mph 82 % 0.00 in 0 W/m2
01:17 46.2 °F 41.0 °F 29.83 in SE 6.0 mph 10.0 mph 82 % 0.00 in 0 W/m2
01:22 46.0 °F 40.9 °F 29.82 in SE 5.0 mph 9.0 mph 82 % 0.00 in 0 W/m2
01:27 45.9 °F 40.7 °F 29.82 in SE 4.0 mph 7.0 mph 82 % 0.00 in 0 W/m2
01:32 45.9 °F 40.7 °F 29.82 in SE 5.0 mph 8.0 mph 82 % 0.00 in 0 W/m2
01:37 45.7 °F 40.5 °F 29.82 in SE 5.0 mph 8.0 mph 82 % 0.00 in 0 W/m2
01:42 45.5 °F 40.6 °F 29.82 in SE 5.0 mph 8.0 mph 83 % 0.00 in 0 W/m2
01:47 45.3 °F 40.5 °F 29.82 in SE 5.0 mph 8.0 mph 83 % 0.00 in 0 W/m2
01:52 45.3 °F 40.5 °F 29.81 in SE 5.0 mph 8.0 mph 83 % 0.00 in 0 W/m2
01:57 45.1 °F 40.3 °F 29.81 in SE 5.0 mph 9.0 mph 83 % 0.00 in 0 W/m2
02:02 45.1 °F 40.3 °F 29.81 in SE 5.0 mph 9.0 mph 83 % 0.00 in 0 W/m2
02:07 45.1 °F 40.6 °F 29.81 in SE 6.0 mph 11.0 mph 84 % 0.00 in 0 W/m2
02:12 45.1 °F 40.3 °F 29.81 in SE 7.0 mph 13.0 mph 83 % 0.00 in 0 W/m2
02:15 45.3 °F 40.5 °F 29.81 in SE 7.0 mph 13.0 mph 83 % 0.00 in 0 W/m2
02:20 45.3 °F 40.5 °F 29.81 in SE 7.0 mph 13.0 mph 83 % 0.00 in 0 W/m2
02:25 45.3 °F 40.5 °F 29.81 in SE 6.0 mph 10.0 mph 83 % 0.00 in 0 W/m2
02:30 45.3 °F 40.5 °F 29.81 in SE 5.0 mph 11.0 mph 83 % 0.00 in 0 W/m2
02:35 45.3 °F 40.5 °F 29.80 in SE 6.0 mph 11.0 mph 83 % 0.00 in 0 W/m2
02:40 45.3 °F 40.5 °F 29.80 in SE 5.0 mph 8.0 mph 83 % 0.00 in 0 W/m2
02:45 45.5 °F 40.6 °F 29.80 in SE 6.0 mph 12.0 mph 83 % 0.00 in 0 W/m2
02:50 45.5 °F 40.6 °F 29.80 in SE 7.0 mph 13.0 mph 83 % 0.00 in 0 W/m2
02:55 45.5 °F 40.3 °F 29.80 in SE 6.0 mph 13.0 mph 82 % 0.00 in 0 W/m2
03:00 45.5 °F 40.3 °F 29.80 in ESE 5.0 mph 9.0 mph 82 % 0.00 in 0 W/m2
03:05 45.5 °F 40.3 °F 29.80 in SE 5.0 mph 10.0 mph 82 % 0.00 in 0 W/m2
03:10 45.7 °F 40.5 °F 29.80 in SE 6.0 mph 10.0 mph 82 % 0.00 in 0 W/m2
03:15 45.7 °F 40.5 °F 29.80 in SE 7.0 mph 12.0 mph 82 % 0.00 in 0 W/m2
03:20 45.9 °F 40.7 °F 29.80 in SE 7.0 mph 12.0 mph 82 % 0.00 in 0 W/m2
03:25 45.9 °F 40.4 °F 29.79 in SE 7.0 mph 12.0 mph 81 % 0.00 in 0 W/m2
03:30 45.9 °F 40.4 °F 29.79 in SE 7.0 mph 11.0 mph 81 % 0.00 in 0 W/m2
03:35 46.0 °F 40.5 °F 29.79 in SE 6.0 mph 11.0 mph 81 % 0.00 in 0 W/m2
03:40 46.0 °F 40.5 °F 29.79 in SE 5.0 mph 11.0 mph 81 % 0.00 in 0 W/m2
03:46 45.9 °F 40.4 °F 29.79 in SE 4.0 mph 8.0 mph 81 % 0.00 in 0 W/m2
03:51 45.9 °F 40.4 °F 29.79 in SE 4.0 mph 7.0 mph 81 % 0.00 in 0 W/m2
03:56 45.9 °F 40.4 °F 29.78 in SE 4.0 mph 7.0 mph 81 % 0.00 in 0 W/m2
04:01 45.7 °F 40.2 °F 29.78 in SE 4.0 mph 7.0 mph 81 % 0.00 in 0 W/m2
04:06 45.7 °F 40.2 °F 29.78 in SE 4.0 mph 7.0 mph 81 % 0.00 in 0 W/m2
04:11 45.7 °F 40.2 °F 29.78 in SE 3.0 mph 7.0 mph 81 % 0.00 in 0 W/m2
04:16 45.7 °F 40.2 °F 29.78 in SE 3.0 mph 10.0 mph 81 % 0.00 in 0 W/m2
04:21 45.9 °F 40.4 °F 29.78 in SE 5.0 mph 10.0 mph 81 % 0.00 in 0 W/m2
04:26 45.9 °F 40.4 °F 29.78 in SE 5.0 mph 9.0 mph 81 % 0.00 in 0 W/m2
04:31 46.0 °F 40.5 °F 29.78 in SE 5.0 mph 9.0 mph 81 % 0.00 in 0 W/m2
04:36 46.0 °F 40.5 °F 29.78 in SE 6.0 mph 12.0 mph 81 % 0.00 in 0 W/m2
04:41 46.0 °F 40.5 °F 29.77 in SE 6.0 mph 12.0 mph 81 % 0.00 in 0 W/m2
04:46 46.0 °F 40.5 °F 29.77 in SE 5.0 mph 10.0 mph 81 % 0.00 in 0 W/m2
04:51 46.0 °F 40.5 °F 29.77 in SE 5.0 mph 9.0 mph 81 % 0.00 in 0 W/m2
04:56 45.9 °F 40.4 °F 29.77 in ESE 6.0 mph 9.0 mph 81 % 0.00 in 0 W/m2
05:01 45.9 °F 40.4 °F 29.77 in ESE 5.0 mph 9.0 mph 81 % 0.00 in 0 W/m2
05:06 45.9 °F 40.7 °F 29.77 in SE 5.0 mph 10.0 mph 82 % 0.00 in 0 W/m2
05:11 45.7 °F 40.5 °F 29.77 in ESE 5.0 mph 10.0 mph 82 % 0.00 in 0 W/m2
05:16 45.7 °F 40.8 °F 29.77 in ESE 5.0 mph 13.0 mph 83 % 0.00 in 0 W/m2
05:21 45.7 °F 40.8 °F 29.77 in SE 5.0 mph 13.0 mph 83 % 0.00 in 0 W/m2
05:26 45.7 °F 40.8 °F 29.77 in SE 6.0 mph 11.0 mph 83 % 0.00 in 5 W/m2
05:27 45.7 °F 40.8 °F 29.77 in SE 6.0 mph 11.0 mph 83 % 0.00 in 5 W/m2
05:32 45.7 °F 40.8 °F 29.77 in SE 6.0 mph 11.0 mph 83 % 0.00 in 5 W/m2
05:37 45.7 °F 40.8 °F 29.77 in ESE 6.0 mph 13.0 mph 83 % 0.00 in 7 W/m2
05:42 45.7 °F 40.8 °F 29.76 in ESE 5.0 mph 13.0 mph 83 % 0.00 in 9 W/m2
05:47 45.7 °F 40.8 °F 29.76 in ESE 4.0 mph 9.0 mph 83 % 0.00 in 11 W/m2
05:53 45.7 °F 40.8 °F 29.76 in ESE 5.0 mph 10.0 mph 83 % 0.00 in 9 W/m2
05:58 45.7 °F 40.8 °F 29.76 in ESE 5.0 mph 10.0 mph 83 % 0.00 in 9 W/m2
06:03 45.7 °F 40.8 °F 29.76 in ESE 6.0 mph 12.0 mph 83 % 0.00 in 12 W/m2
06:08 45.7 °F 40.8 °F 29.76 in ESE 5.0 mph 12.0 mph 83 % 0.00 in 12 W/m2
06:13 45.7 °F 40.8 °F 29.75 in ESE 4.0 mph 7.0 mph 83 % 0.00 in 14 W/m2
06:18 45.7 °F 40.8 °F 29.76 in ESE 4.0 mph 8.0 mph 83 % 0.00 in 25 W/m2
06:23 45.7 °F 40.8 °F 29.76 in ESE 3.0 mph 8.0 mph 83 % 0.00 in 28 W/m2
06:28 45.7 °F 40.8 °F 29.75 in ESE 2.0 mph 5.0 mph 83 % 0.00 in 33 W/m2
06:33 45.7 °F 40.8 °F 29.76 in ESE 3.0 mph 6.0 mph 83 % 0.00 in 33 W/m2
06:38 45.7 °F 40.8 °F 29.75 in ESE 4.0 mph 10.0 mph 83 % 0.00 in 30 W/m2
06:43 45.7 °F 40.8 °F 29.75 in SE 4.0 mph 10.0 mph 83 % 0.00 in 35 W/m2
06:48 45.7 °F 40.8 °F 29.75 in SE 3.0 mph 9.0 mph 83 % 0.00 in 58 W/m2
06:53 45.9 °F 40.7 °F 29.75 in ESE 4.0 mph 10.0 mph 82 % 0.00 in 76 W/m2
06:58 46.0 °F 40.9 °F 29.75 in ESE 5.0 mph 10.0 mph 82 % 0.00 in 95 W/m2
07:03 46.2 °F 41.0 °F 29.75 in ESE 3.0 mph 8.0 mph 82 % 0.00 in 79 W/m2
07:08 46.2 °F 40.7 °F 29.75 in ESE 3.0 mph 6.0 mph 81 % 0.00 in 72 W/m2
07:13 46.4 °F 40.9 °F 29.75 in SE 3.0 mph 7.0 mph 81 % 0.00 in 67 W/m2
07:18 46.4 °F 40.9 °F 29.75 in SE 3.0 mph 8.0 mph 81 % 0.00 in 91 W/m2
07:23 46.6 °F 40.7 °F 29.75 in ESE 5.0 mph 11.0 mph 80 % 0.00 in 90 W/m2
07:28 46.6 °F 40.7 °F 29.74 in ESE 5.0 mph 11.0 mph 80 % 0.00 in 93 W/m2
07:33 46.6 °F 40.7 °F 29.74 in SE 5.0 mph 12.0 mph 80 % 0.00 in 114 W/m2
07:38 46.8 °F 40.9 °F 29.74 in SE 6.0 mph 12.0 mph 80 % 0.00 in 137 W/m2
07:43 46.8 °F 40.9 °F 29.74 in SE 6.0 mph 10.0 mph 80 % 0.00 in 114 W/m2
07:48 46.9 °F 41.1 °F 29.74 in SE 5.0 mph 10.0 mph 80 % 0.00 in 121 W/m2
07:53 47.1 °F 41.3 °F 29.74 in ESE 6.0 mph 10.0 mph 80 % 0.00 in 135 W/m2
07:58 47.3 °F 41.1 °F 29.74 in ESE 6.0 mph 11.0 mph 79 % 0.00 in 149 W/m2
08:03 47.5 °F 41.3 °F 29.74 in SE 6.0 mph 11.0 mph 79 % 0.00 in 158 W/m2
08:08 47.7 °F 41.1 °F 29.73 in ESE 7.0 mph 12.0 mph 78 % 0.00 in 174 W/m2
08:14 47.8 °F 41.3 °F 29.73 in ESE 7.0 mph 13.0 mph 78 % 0.00 in 209 W/m2
08:19 48.0 °F 41.8 °F 29.73 in ESE 6.0 mph 13.0 mph 79 % 0.00 in 200 W/m2
08:24 48.4 °F 41.8 °F 29.73 in ESE 6.0 mph 11.0 mph 78 % 0.00 in 163 W/m2
08:29 48.6 °F 42.0 °F 29.72 in ESE 6.0 mph 11.0 mph 78 % 0.00 in 178 W/m2
08:34 48.7 °F 41.8 °F 29.72 in ESE 7.0 mph 14.0 mph 77 % 0.00 in 216 W/m2
08:39 48.9 °F 42.0 °F 29.72 in ESE 8.0 mph 16.0 mph 77 % 0.00 in 276 W/m2
08:44 49.3 °F 42.0 °F 29.72 in ESE 8.0 mph 16.0 mph 76 % 0.00 in 229 W/m2
08:49 49.5 °F 42.2 °F 29.71 in ESE 7.0 mph 14.0 mph 76 % 0.00 in 250 W/m2
08:54 49.6 °F 42.0 °F 29.71 in ESE 8.0 mph 13.0 mph 75 % 0.00 in 244 W/m2
08:59 49.8 °F 42.2 °F 29.71 in ESE 9.0 mph 14.0 mph 75 % 0.00 in 241 W/m2
09:04 50.2 °F 42.2 °F 29.70 in ESE 9.0 mph 15.0 mph 74 % 0.00 in 271 W/m2
09:09 50.4 °F 42.0 °F 29.70 in ESE 9.0 mph 15.0 mph 73 % 0.00 in 255 W/m2
09:14 50.5 °F 42.2 °F 29.70 in ESE 8.0 mph 15.0 mph 73 % 0.00 in 301 W/m2
09:15 50.7 °F 42.4 °F 29.70 in ESE 8.0 mph 15.0 mph 73 % 0.00 in 301 W/m2
09:20 51.1 °F 42.0 °F 29.69 in ESE 8.0 mph 19.0 mph 71 % 0.00 in 394 W/m2
09:25 51.3 °F 41.8 °F 29.69 in ESE 11.0 mph 22.0 mph 70 % 0.00 in 461 W/m2
09:30 52.0 °F 42.9 °F 29.69 in ESE 11.0 mph 22.0 mph 71 % 0.00 in 464 W/m2
09:35 52.5 °F 43.0 °F 29.69 in ESE 8.0 mph 16.0 mph 70 % 0.00 in 413 W/m2
09:40 52.9 °F 43.0 °F 29.68 in ESE 8.0 mph 16.0 mph 69 % 0.00 in 513 W/m2
09:45 53.2 °F 42.9 °F 29.68 in East 8.0 mph 18.0 mph 68 % 0.00 in 512 W/m2
09:50 53.8 °F 43.1 °F 29.68 in East 8.0 mph 18.0 mph 67 % 0.00 in 543 W/m2
09:55 54.1 °F 43.4 °F 29.68 in East 8.0 mph 19.0 mph 67 % 0.00 in 580 W/m2
10:00 54.5 °F 43.4 °F 29.68 in East 8.0 mph 19.0 mph 66 % 0.00 in 605 W/m2
10:05 54.9 °F 43.7 °F 29.68 in ESE 8.0 mph 14.0 mph 66 % 0.00 in 483 W/m2
10:10 55.0 °F 43.5 °F 29.67 in ESE 8.0 mph 14.0 mph 65 % 0.00 in 640 W/m2
10:15 55.2 °F 43.2 °F 29.67 in East 8.0 mph 18.0 mph 64 % 0.00 in 533 W/m2
10:20 55.2 °F 42.8 °F 29.67 in East 9.0 mph 18.0 mph 63 % 0.00 in 441 W/m2
10:25 55.0 °F 43.5 °F 29.67 in ESE 9.0 mph 15.0 mph 65 % 0.00 in 448 W/m2
10:30 55.4 °F 43.8 °F 29.67 in ESE 8.0 mph 14.0 mph 65 % 0.00 in 489 W/m2
10:35 55.8 °F 43.8 °F 29.66 in East 8.0 mph 14.0 mph 64 % 0.00 in 526 W/m2
10:40 55.9 °F 43.5 °F 29.66 in ESE 9.0 mph 21.0 mph 63 % 0.00 in 587 W/m2
10:46 55.8 °F 43.3 °F 29.66 in ESE 10.0 mph 21.0 mph 63 % 0.00 in 578 W/m2
10:51 55.9 °F 43.5 °F 29.65 in ESE 10.0 mph 21.0 mph 63 % 0.00 in 603 W/m2
10:56 56.3 °F 43.4 °F 29.65 in ESE 10.0 mph 21.0 mph 62 % 0.00 in 492 W/m2
11:01 56.5 °F 43.6 °F 29.64 in ESE 9.0 mph 19.0 mph 62 % 0.00 in 403 W/m2
11:06 56.1 °F 43.3 °F 29.64 in ESE 9.0 mph 19.0 mph 62 % 0.00 in 374 W/m2
11:11 55.9 °F 42.7 °F 29.64 in ESE 11.0 mph 20.0 mph 61 % 0.00 in 432 W/m2
11:16 55.9 °F 43.1 °F 29.64 in ESE 10.0 mph 20.0 mph 62 % 0.00 in 483 W/m2
11:21 56.1 °F 43.3 °F 29.64 in ESE 9.0 mph 18.0 mph 62 % 0.00 in 408 W/m2
11:26 56.1 °F 43.3 °F 29.63 in ESE 9.0 mph 16.0 mph 62 % 0.00 in 408 W/m2
11:31 56.3 °F 43.4 °F 29.63 in ESE 9.0 mph 20.0 mph 62 % 0.00 in 403 W/m2
11:36 56.7 °F 43.4 °F 29.63 in ESE 9.0 mph 20.0 mph 61 % 0.00 in 418 W/m2
11:41 56.8 °F 43.1 °F 29.62 in ESE 10.0 mph 18.0 mph 60 % 0.00 in 561 W/m2
11:46 57.4 °F 43.6 °F 29.62 in ESE 10.0 mph 18.0 mph 60 % 0.00 in 452 W/m2
11:51 57.6 °F 43.3 °F 29.62 in ESE 11.0 mph 21.0 mph 59 % 0.00 in 436 W/m2
11:56 57.7 °F 43.1 °F 29.62 in ESE 11.0 mph 24.0 mph 58 % 0.00 in 376 W/m2
12:01 57.7 °F 42.6 °F 29.62 in ESE 11.0 mph 24.0 mph 57 % 0.00 in 316 W/m2
12:06 57.6 °F 42.9 °F 29.62 in ESE 11.0 mph 21.0 mph 58 % 0.00 in 299 W/m2
12:11 57.7 °F 43.1 °F 29.62 in ESE 10.0 mph 21.0 mph 58 % 0.00 in 374 W/m2
12:16 57.9 °F 42.8 °F 29.61 in ESE 10.0 mph 24.0 mph 57 % 0.00 in 425 W/m2
12:21 58.3 °F 43.1 °F 29.61 in ESE 11.0 mph 24.0 mph 57 % 0.00 in 452 W/m2
12:26 58.6 °F 42.5 °F 29.60 in ESE 11.0 mph 24.0 mph 55 % 0.00 in 492 W/m2
12:31 59.2 °F 43.0 °F 29.60 in ESE 12.0 mph 24.0 mph 55 % 0.00 in 348 W/m2
12:36 59.2 °F 41.6 °F 29.60 in ESE 13.0 mph 24.0 mph 52 % 0.00 in 533 W/m2
12:41 59.4 °F 42.2 °F 29.60 in ESE 13.0 mph 24.0 mph 53 % 0.00 in 376 W/m2
12:46 59.4 °F 42.2 °F 29.60 in ESE 12.0 mph 21.0 mph 53 % 0.00 in 457 W/m2
12:51 59.5 °F 41.9 °F 29.60 in ESE 11.0 mph 21.0 mph 52 % 0.00 in 148 W/m2
12:56 59.2 °F 41.6 °F 29.59 in ESE 11.0 mph 22.0 mph 52 % 0.00 in 190 W/m2
13:01 58.8 °F 40.7 °F 29.60 in ESE 12.0 mph 22.0 mph 51 % 0.00 in 183 W/m2
13:06 58.6 °F 40.0 °F 29.59 in ESE 11.0 mph 22.0 mph 50 % 0.00 in 193 W/m2
13:11 58.6 °F 39.0 °F 29.59 in ESE 11.0 mph 21.0 mph 48 % 0.00 in 388 W/m2
13:16 58.8 °F 39.7 °F 29.58 in SE 13.0 mph 26.0 mph 49 % 0.00 in 378 W/m2
13:21 59.5 °F 40.9 °F 29.59 in SE 12.0 mph 26.0 mph 50 % 0.00 in 531 W/m2
13:26 59.7 °F 38.9 °F 29.58 in ESE 12.0 mph 23.0 mph 46 % 0.00 in 301 W/m2
13:32 59.5 °F 38.7 °F 29.58 in ESE 15.0 mph 25.0 mph 46 % 0.00 in 348 W/m2
13:37 59.4 °F 38.6 °F 29.58 in ESE 16.0 mph 25.0 mph 46 % 0.00 in 364 W/m2
13:41 59.5 °F 38.7 °F 29.57 in ESE 15.0 mph 25.0 mph 46 % 0.00 in 267 W/m2
13:46 59.7 °F 39.4 °F 29.57 in ESE 11.0 mph 23.0 mph 47 % 0.00 in 276 W/m2
13:51 59.5 °F 39.3 °F 29.57 in ESE 11.0 mph 24.0 mph 47 % 0.00 in 288 W/m2
13:57 59.5 °F 39.8 °F 29.57 in ESE 12.0 mph 24.0 mph 48 % 0.00 in 311 W/m2
14:02 59.5 °F 40.3 °F 29.57 in ESE 12.0 mph 21.0 mph 49 % 0.00 in 374 W/m2
14:07 60.1 °F 41.9 °F 29.57 in ESE 12.0 mph 20.0 mph 51 % 0.00 in 360 W/m2
14:12 60.3 °F 42.6 °F 29.57 in ESE 12.0 mph 19.0 mph 52 % 0.00 in 396 W/m2
14:17 60.4 °F 42.7 °F 29.57 in ESE 12.0 mph 23.0 mph 52 % 0.00 in 800 W/m2
14:22 61.0 °F 42.7 °F 29.57 in ESE 12.0 mph 24.0 mph 51 % 0.00 in 856 W/m2
14:27 61.0 °F 42.7 °F 29.57 in East 11.0 mph 24.0 mph 51 % 0.00 in 788 W/m2
14:32 61.2 °F 42.4 °F 29.57 in ESE 11.0 mph 24.0 mph 50 % 0.00 in 390 W/m2
14:37 60.8 °F 41.5 °F 29.57 in ESE 15.0 mph 26.0 mph 49 % 0.00 in 689 W/m2
14:42 60.6 °F 41.3 °F 29.56 in ESE 16.0 mph 27.0 mph 49 % 0.00 in 686 W/m2
14:47 60.6 °F 41.9 °F 29.57 in ESE 15.0 mph 27.0 mph 50 % 0.00 in 357 W/m2
14:52 60.3 °F 41.0 °F 29.57 in ESE 15.0 mph 25.0 mph 49 % 0.00 in 483 W/m2
14:57 60.1 °F 41.4 °F 29.56 in ESE 15.0 mph 25.0 mph 50 % 0.00 in 390 W/m2
15:02 59.9 °F 41.2 °F 29.56 in ESE 14.0 mph 24.0 mph 50 % 0.00 in 554 W/m2
15:05 59.9 °F 42.2 °F 29.56 in ESE 14.0 mph 24.0 mph 52 % 0.00 in 473 W/m2
15:10 60.1 °F 42.9 °F 29.56 in ESE 12.0 mph 22.0 mph 53 % 0.00 in 309 W/m2
15:15 59.9 °F 43.2 °F 29.56 in ESE 10.0 mph 19.0 mph 54 % 0.00 in 339 W/m2
15:20 59.7 °F 43.0 °F 29.56 in ESE 10.0 mph 21.0 mph 54 % 0.00 in 348 W/m2
15:25 59.4 °F 42.7 °F 29.56 in ESE 11.0 mph 21.0 mph 54 % 0.00 in 457 W/m2
15:30 59.4 °F 42.7 °F 29.56 in ESE 12.0 mph 23.0 mph 54 % 0.00 in 418 W/m2
15:35 59.2 °F 43.0 °F 29.56 in ESE 11.0 mph 23.0 mph 55 % 0.00 in 438 W/m2
15:40 59.2 °F 43.5 °F 29.55 in ESE 10.0 mph 19.0 mph 56 % 0.00 in 369 W/m2
15:45 58.8 °F 43.6 °F 29.56 in ESE 11.0 mph 19.0 mph 57 % 0.00 in 455 W/m2
15:50 58.8 °F 43.6 °F 29.56 in East 10.0 mph 20.0 mph 57 % 0.00 in 432 W/m2
15:55 58.6 °F 44.3 °F 29.56 in East 11.0 mph 20.0 mph 59 % 0.00 in 504 W/m2
16:01 58.8 °F 44.5 °F 29.56 in ESE 10.0 mph 22.0 mph 59 % 0.00 in 557 W/m2
16:06 58.6 °F 44.3 °F 29.56 in East 11.0 mph 23.0 mph 59 % 0.00 in 645 W/m2
16:11 59.0 °F 44.7 °F 29.55 in East 11.0 mph 23.0 mph 59 % 0.00 in 455 W/m2
16:16 58.8 °F 45.0 °F 29.55 in ESE 11.0 mph 21.0 mph 60 % 0.00 in 316 W/m2
16:21 58.6 °F 44.8 °F 29.55 in ESE 10.0 mph 21.0 mph 60 % 0.00 in 422 W/m2
16:26 58.8 °F 45.0 °F 29.55 in ESE 9.0 mph 21.0 mph 60 % 0.00 in 475 W/m2
16:31 58.8 °F 45.0 °F 29.55 in ESE 9.0 mph 18.0 mph 60 % 0.00 in 248 W/m2
16:36 58.5 °F 44.2 °F 29.55 in ESE 11.0 mph 25.0 mph 59 % 0.00 in 221 W/m2
16:41 58.1 °F 44.7 °F 29.55 in ESE 11.0 mph 25.0 mph 61 % 0.00 in 237 W/m2
16:46 57.7 °F 44.4 °F 29.55 in ESE 9.0 mph 15.0 mph 61 % 0.00 in 225 W/m2
16:51 57.6 °F 44.6 °F 29.55 in ESE 9.0 mph 16.0 mph 62 % 0.00 in 236 W/m2
16:56 57.4 °F 44.9 °F 29.55 in ESE 10.0 mph 18.0 mph 63 % 0.00 in 248 W/m2
17:01 57.4 °F 44.9 °F 29.54 in ESE 9.0 mph 18.0 mph 63 % 0.00 in 207 W/m2
17:06 57.4 °F 44.9 °F 29.54 in ESE 9.0 mph 18.0 mph 63 % 0.00 in 165 W/m2
17:11 57.0 °F 44.5 °F 29.54 in East 9.0 mph 18.0 mph 63 % 0.00 in 162 W/m2
17:16 56.8 °F 44.8 °F 29.54 in ESE 10.0 mph 18.0 mph 64 % 0.00 in 178 W/m2
17:21 56.7 °F 44.6 °F 29.54 in ESE 9.0 mph 18.0 mph 64 % 0.00 in 169 W/m2
17:26 56.7 °F 45.0 °F 29.54 in East 8.0 mph 18.0 mph 65 % 0.00 in 135 W/m2
17:31 56.5 °F 44.9 °F 29.54 in East 8.0 mph 14.0 mph 65 % 0.00 in 135 W/m2
17:36 56.5 °F 44.9 °F 29.54 in East 7.0 mph 13.0 mph 65 % 0.00 in 137 W/m2
17:41 56.5 °F 44.9 °F 29.54 in East 7.0 mph 13.0 mph 65 % 0.00 in 137 W/m2
17:46 56.5 °F 44.9 °F 29.53 in East 7.0 mph 16.0 mph 65 % 0.00 in 123 W/m2
17:51 56.5 °F 44.9 °F 29.54 in ESE 7.0 mph 16.0 mph 65 % 0.00 in 125 W/m2
17:56 56.7 °F 45.4 °F 29.54 in East 6.0 mph 13.0 mph 66 % 0.00 in 135 W/m2
18:01 56.7 °F 45.0 °F 29.54 in East 7.0 mph 12.0 mph 65 % 0.00 in 120 W/m2
18:06 56.7 °F 45.0 °F 29.54 in East 7.0 mph 12.0 mph 65 % 0.00 in 104 W/m2
18:11 56.7 °F 45.0 °F 29.54 in East 6.0 mph 12.0 mph 65 % 0.00 in 88 W/m2
18:16 56.5 °F 44.9 °F 29.53 in East 6.0 mph 11.0 mph 65 % 0.00 in 97 W/m2
18:21 56.5 °F 44.9 °F 29.53 in East 7.0 mph 14.0 mph 65 % 0.00 in 121 W/m2
18:26 56.3 °F 45.1 °F 29.53 in East 7.0 mph 14.0 mph 66 % 0.00 in 125 W/m2
18:31 56.3 °F 45.1 °F 29.53 in East 7.0 mph 13.0 mph 66 % 0.00 in 111 W/m2
18:36 56.3 °F 45.1 °F 29.53 in East 7.0 mph 13.0 mph 66 % 0.00 in 132 W/m2
18:41 56.3 °F 45.5 °F 29.53 in East 6.0 mph 13.0 mph 67 % 0.00 in 111 W/m2
18:46 56.1 °F 45.3 °F 29.53 in East 6.0 mph 13.0 mph 67 % 0.00 in 98 W/m2
18:51 56.1 °F 45.3 °F 29.53 in East 6.0 mph 10.0 mph 67 % 0.00 in 84 W/m2
18:56 56.1 °F 45.3 °F 29.54 in East 5.0 mph 13.0 mph 67 % 0.00 in 83 W/m2
19:01 56.1 °F 45.3 °F 29.53 in East 5.0 mph 13.0 mph 67 % 0.00 in 81 W/m2
19:06 55.9 °F 45.1 °F 29.53 in East 5.0 mph 11.0 mph 67 % 0.00 in 81 W/m2
19:11 55.8 °F 45.0 °F 29.53 in East 6.0 mph 11.0 mph 67 % 0.00 in 67 W/m2
19:16 55.8 °F 45.0 °F 29.54 in East 6.0 mph 11.0 mph 67 % 0.00 in 51 W/m2
19:21 55.6 °F 45.2 °F 29.54 in East 6.0 mph 11.0 mph 68 % 0.00 in 40 W/m2
19:26 55.2 °F 44.8 °F 29.54 in East 5.0 mph 11.0 mph 68 % 0.00 in 35 W/m2
19:31 55.2 °F 44.8 °F 29.54 in East 6.0 mph 11.0 mph 68 % 0.00 in 35 W/m2
19:33 55.2 °F 44.8 °F 29.54 in East 6.0 mph 11.0 mph 68 % 0.00 in 35 W/m2
19:38 55.0 °F 44.7 °F 29.54 in East 6.0 mph 10.0 mph 68 % 0.00 in 30 W/m2
19:43 55.0 °F 44.7 °F 29.54 in East 6.0 mph 10.0 mph 68 % 0.00 in 28 W/m2
19:48 55.0 °F 45.1 °F 29.54 in East 6.0 mph 10.0 mph 69 % 0.00 in 25 W/m2
19:53 54.9 °F 44.9 °F 29.54 in East 4.0 mph 10.0 mph 69 % 0.00 in 18 W/m2
19:58 54.7 °F 45.1 °F 29.54 in East 4.0 mph 10.0 mph 70 % 0.00 in 14 W/m2
20:03 54.7 °F 45.1 °F 29.54 in East 5.0 mph 10.0 mph 70 % 0.00 in 11 W/m2
20:08 54.3 °F 45.1 °F 29.54 in ENE 5.0 mph 13.0 mph 71 % 0.00 in 7 W/m2
20:13 54.1 °F 44.9 °F 29.54 in ENE 6.0 mph 13.0 mph 71 % 0.00 in 5 W/m2
20:18 54.1 °F 44.9 °F 29.54 in ENE 5.0 mph 10.0 mph 71 % 0.00 in 0 W/m2
20:23 54.0 °F 44.8 °F 29.54 in ENE 5.0 mph 11.0 mph 71 % 0.00 in 0 W/m2
20:24 54.0 °F 44.8 °F 29.54 in ENE 5.0 mph 12.0 mph 71 % 0.00 in 0 W/m2
20:29 53.8 °F 45.0 °F 29.55 in East 5.0 mph 12.0 mph 72 % 0.00 in 0 W/m2
20:34 53.8 °F 45.0 °F 29.55 in East 5.0 mph 10.0 mph 72 % 0.00 in 0 W/m2
20:39 53.6 °F 44.8 °F 29.55 in East 5.0 mph 9.0 mph 72 % 0.00 in 0 W/m2
20:44 53.4 °F 44.6 °F 29.55 in East 6.0 mph 12.0 mph 72 % 0.00 in 0 W/m2
20:49 53.4 °F 45.0 °F 29.55 in East 6.0 mph 12.0 mph 73 % 0.00 in 0 W/m2
20:54 53.2 °F 44.8 °F 29.55 in ENE 6.0 mph 11.0 mph 73 % 0.00 in 0 W/m2
20:59 53.2 °F 44.8 °F 29.55 in ENE 6.0 mph 11.0 mph 73 % 0.00 in 0 W/m2
21:04 53.1 °F 44.6 °F 29.55 in East 6.0 mph 11.0 mph 73 % 0.00 in 0 W/m2
21:09 53.1 °F 44.6 °F 29.55 in ENE 6.0 mph 11.0 mph 73 % 0.00 in 0 W/m2
21:14 52.9 °F 44.8 °F 29.54 in ENE 7.0 mph 12.0 mph 74 % 0.00 in 0 W/m2
21:19 52.9 °F 44.8 °F 29.54 in ENE 6.0 mph 12.0 mph 74 % 0.00 in 0 W/m2
21:24 52.7 °F 44.6 °F 29.55 in ENE 6.0 mph 10.0 mph 74 % 0.00 in 0 W/m2
21:29 52.5 °F 44.5 °F 29.54 in ENE 6.0 mph 10.0 mph 74 % 0.00 in 0 W/m2
21:34 52.5 °F 44.5 °F 29.55 in East 6.0 mph 11.0 mph 74 % 0.00 in 0 W/m2
21:39 52.3 °F 44.6 °F 29.55 in East 5.0 mph 11.0 mph 75 % 0.00 in 0 W/m2
21:40 52.3 °F 44.6 °F 29.55 in East 4.0 mph 11.0 mph 75 % 0.00 in 0 W/m2
21:45 52.3 °F 44.6 °F 29.55 in East 3.0 mph 9.0 mph 75 % 0.00 in 0 W/m2
21:50 52.3 °F 44.6 °F 29.55 in East 5.0 mph 12.0 mph 75 % 0.00 in 0 W/m2
21:55 52.3 °F 44.6 °F 29.55 in East 5.0 mph 12.0 mph 75 % 0.00 in 0 W/m2
22:00 52.3 °F 44.6 °F 29.55 in East 4.0 mph 10.0 mph 75 % 0.00 in 0 W/m2
22:05 52.3 °F 44.6 °F 29.55 in East 4.0 mph 10.0 mph 75 % 0.00 in 0 W/m2
22:10 52.2 °F 44.5 °F 29.55 in East 4.0 mph 10.0 mph 75 % 0.00 in 0 W/m2
22:15 52.2 °F 44.5 °F 29.55 in East 4.0 mph 8.0 mph 75 % 0.00 in 0 W/m2
22:20 52.2 °F 44.5 °F 29.55 in East 3.0 mph 8.0 mph 75 % 0.00 in 0 W/m2
22:25 52.0 °F 44.3 °F 29.55 in East 2.0 mph 8.0 mph 75 % 0.00 in 0 W/m2
22:30 52.0 °F 44.6 °F 29.55 in East 2.0 mph 6.0 mph 76 % 0.00 in 0 W/m2
22:35 52.0 °F 44.6 °F 29.55 in East 2.0 mph 7.0 mph 76 % 0.00 in 0 W/m2
22:40 51.8 °F 44.5 °F 29.55 in East 3.0 mph 7.0 mph 76 % 0.00 in 0 W/m2
22:45 51.8 °F 44.5 °F 29.55 in East 3.0 mph 7.0 mph 76 % 0.00 in 0 W/m2
22:50 51.6 °F 44.3 °F 29.55 in East 2.0 mph 7.0 mph 76 % 0.00 in 0 W/m2
22:55 51.6 °F 44.3 °F 29.55 in East 2.0 mph 7.0 mph 76 % 0.00 in 0 W/m2
23:00 51.4 °F 44.5 °F 29.55 in East 3.0 mph 7.0 mph 77 % 0.00 in 0 W/m2
23:05 51.4 °F 44.5 °F 29.55 in East 2.0 mph 7.0 mph 77 % 0.00 in 0 W/m2
23:10 51.4 °F 44.5 °F 29.55 in ENE 1.0 mph 7.0 mph 77 % 0.00 in 0 W/m2
23:16 51.3 °F 44.3 °F 29.55 in ENE 1.0 mph 5.0 mph 77 % 0.00 in 0 W/m2
23:21 51.3 °F 44.3 °F 29.55 in Calm   2.0 mph 77 % 0.00 in 0 W/m2
23:26 51.1 °F 44.1 °F 29.55 in Calm   4.0 mph 77 % 0.00 in 0 W/m2
23:31 51.1 °F 44.5 °F 29.56 in Calm   4.0 mph 78 % 0.00 in 0 W/m2
23:36 50.9 °F 44.3 °F 29.56 in Calm   2.0 mph 78 % 0.00 in 0 W/m2
23:41 50.9 °F 44.3 °F 29.56 in Calm   5.0 mph 78 % 0.00 in 0 W/m2
23:46 50.7 °F 44.1 °F 29.56 in ENE 2.0 mph 6.0 mph 78 % 0.00 in 0 W/m2
23:51 50.7 °F 44.4 °F 29.55 in NE 2.0 mph 6.0 mph 79 % 0.00 in 0 W/m2
23:56 50.7 °F 44.4 °F 29.56 in NE 2.0 mph 6.0 mph 79 % 0.00 in 0 W/m2
Delerius-Weather
Compliments of Weather Underground - 2.25 mb

Data updates at regular intervals.